sensor_id;sensor_type;location;lat;lon;timestamp;P1;durP1;ratioP1;P2;durP2;ratioP2
58372;SDS011;44177;43.356;27.672;2023-04-24T00:00:53;10.52;;;5.32;;
58372;SDS011;44177;43.356;27.672;2023-04-24T00:03:22;8.30;;;5.18;;
58372;SDS011;44177;43.356;27.672;2023-04-24T00:05:48;14.07;;;6.30;;
58372;SDS011;44177;43.356;27.672;2023-04-24T00:08:13;10.35;;;6.05;;
58372;SDS011;44177;43.356;27.672;2023-04-24T00:10:39;12.23;;;5.65;;
58372;SDS011;44177;43.356;27.672;2023-04-24T00:13:04;10.52;;;5.47;;
58372;SDS011;44177;43.356;27.672;2023-04-24T00:15:30;9.80;;;5.78;;
58372;SDS011;44177;43.356;27.672;2023-04-24T00:17:56;10.10;;;5.68;;
58372;SDS011;44177;43.356;27.672;2023-04-24T00:20:21;10.50;;;5.90;;
58372;SDS011;44177;43.356;27.672;2023-04-24T00:22:47;10.60;;;5.78;;
58372;SDS011;44177;43.356;27.672;2023-04-24T00:25:13;10.73;;;5.95;;
58372;SDS011;44177;43.356;27.672;2023-04-24T00:27:38;11.45;;;6.60;;
58372;SDS011;44177;43.356;27.672;2023-04-24T00:30:04;8.05;;;5.10;;
58372;SDS011;44177;43.356;27.672;2023-04-24T00:32:31;12.60;;;5.75;;
58372;SDS011;44177;43.356;27.672;2023-04-24T00:34:56;12.88;;;6.45;;
58372;SDS011;44177;43.356;27.672;2023-04-24T00:37:21;11.35;;;6.68;;
58372;SDS011;44177;43.356;27.672;2023-04-24T00:39:47;11.05;;;6.30;;
58372;SDS011;44177;43.356;27.672;2023-04-24T00:42:12;12.13;;;7.03;;
58372;SDS011;44177;43.356;27.672;2023-04-24T00:44:38;13.02;;;6.20;;
58372;SDS011;44177;43.356;27.672;2023-04-24T00:47:03;11.30;;;6.20;;
58372;SDS011;44177;43.356;27.672;2023-04-24T00:49:29;12.40;;;6.93;;
58372;SDS011;44177;43.356;27.672;2023-04-24T00:51:54;12.70;;;6.80;;
58372;SDS011;44177;43.356;27.672;2023-04-24T00:54:21;11.18;;;6.03;;
58372;SDS011;44177;43.356;27.672;2023-04-24T00:56:47;16.15;;;6.38;;
58372;SDS011;44177;43.356;27.672;2023-04-24T00:59:13;12.73;;;6.53;;
58372;SDS011;44177;43.356;27.672;2023-04-24T01:01:42;13.80;;;6.40;;
58372;SDS011;44177;43.356;27.672;2023-04-24T01:04:09;11.90;;;6.22;;
58372;SDS011;44177;43.356;27.672;2023-04-24T01:06:35;11.38;;;6.68;;
58372;SDS011;44177;43.356;27.672;2023-04-24T01:09:04;10.38;;;6.13;;
58372;SDS011;44177;43.356;27.672;2023-04-24T01:11:29;11.05;;;6.72;;
58372;SDS011;44177;43.356;27.672;2023-04-24T01:13:56;14.20;;;6.55;;
58372;SDS011;44177;43.356;27.672;2023-04-24T01:16:22;11.98;;;6.60;;
58372;SDS011;44177;43.356;27.672;2023-04-24T01:18:47;13.65;;;6.63;;
58372;SDS011;44177;43.356;27.672;2023-04-24T01:21:14;11.85;;;6.38;;
58372;SDS011;44177;43.356;27.672;2023-04-24T01:23:42;14.18;;;7.03;;
58372;SDS011;44177;43.356;27.672;2023-04-24T01:26:08;11.63;;;6.78;;
58372;SDS011;44177;43.356;27.672;2023-04-24T01:28:34;12.05;;;6.30;;
58372;SDS011;44177;43.356;27.672;2023-04-24T01:31:00;10.13;;;6.45;;
58372;SDS011;44177;43.356;27.672;2023-04-24T01:33:26;11.70;;;6.90;;
58372;SDS011;44177;43.356;27.672;2023-04-24T01:35:51;14.57;;;7.20;;
58372;SDS011;44177;43.356;27.672;2023-04-24T01:38:17;10.43;;;6.90;;
58372;SDS011;44177;43.356;27.672;2023-04-24T01:40:43;13.13;;;6.72;;
58372;SDS011;44177;43.356;27.672;2023-04-24T01:43:08;13.25;;;7.00;;
58372;SDS011;44177;43.356;27.672;2023-04-24T01:45:34;13.50;;;7.70;;
58372;SDS011;44177;43.356;27.672;2023-04-24T01:47:59;12.18;;;7.45;;
58372;SDS011;44177;43.356;27.672;2023-04-24T01:50:25;14.25;;;7.18;;
58372;SDS011;44177;43.356;27.672;2023-04-24T01:52:50;14.38;;;8.43;;
58372;SDS011;44177;43.356;27.672;2023-04-24T01:55:16;18.20;;;9.02;;
58372;SDS011;44177;43.356;27.672;2023-04-24T01:57:41;14.98;;;9.27;;
58372;SDS011;44177;43.356;27.672;2023-04-24T02:00:07;16.02;;;8.75;;
58372;SDS011;44177;43.356;27.672;2023-04-24T02:02:33;15.60;;;8.82;;
58372;SDS011;44177;43.356;27.672;2023-04-24T02:04:59;19.88;;;9.30;;
58372;SDS011;44177;43.356;27.672;2023-04-24T02:07:24;14.73;;;9.15;;
58372;SDS011;44177;43.356;27.672;2023-04-24T02:09:50;20.88;;;8.80;;
58372;SDS011;44177;43.356;27.672;2023-04-24T02:12:15;18.13;;;9.68;;
58372;SDS011;44177;43.356;27.672;2023-04-24T02:14:42;14.95;;;9.77;;
58372;SDS011;44177;43.356;27.672;2023-04-24T02:17:08;17.52;;;10.38;;
58372;SDS011;44177;43.356;27.672;2023-04-24T02:19:34;17.42;;;9.98;;
58372;SDS011;44177;43.356;27.672;2023-04-24T02:22:00;17.25;;;9.85;;
58372;SDS011;44177;43.356;27.672;2023-04-24T02:24:25;13.90;;;9.55;;
58372;SDS011;44177;43.356;27.672;2023-04-24T02:26:50;17.23;;;9.15;;
58372;SDS011;44177;43.356;27.672;2023-04-24T02:29:16;19.00;;;8.57;;
58372;SDS011;44177;43.356;27.672;2023-04-24T02:31:41;14.93;;;7.93;;
58372;SDS011;44177;43.356;27.672;2023-04-24T02:34:07;16.05;;;9.07;;
58372;SDS011;44177;43.356;27.672;2023-04-24T02:36:32;15.73;;;8.90;;
58372;SDS011;44177;43.356;27.672;2023-04-24T02:38:58;13.65;;;7.65;;
58372;SDS011;44177;43.356;27.672;2023-04-24T02:41:23;15.40;;;7.40;;
58372;SDS011;44177;43.356;27.672;2023-04-24T02:43:49;11.88;;;7.00;;
58372;SDS011;44177;43.356;27.672;2023-04-24T02:46:15;12.43;;;7.30;;
58372;SDS011;44177;43.356;27.672;2023-04-24T02:48:40;12.38;;;6.65;;
58372;SDS011;44177;43.356;27.672;2023-04-24T02:51:06;10.98;;;7.15;;
58372;SDS011;44177;43.356;27.672;2023-04-24T02:53:31;11.52;;;7.13;;
58372;SDS011;44177;43.356;27.672;2023-04-24T02:55:57;13.20;;;6.97;;
58372;SDS011;44177;43.356;27.672;2023-04-24T02:58:22;9.52;;;6.47;;
58372;SDS011;44177;43.356;27.672;2023-04-24T03:00:48;10.77;;;6.22;;
58372;SDS011;44177;43.356;27.672;2023-04-24T03:03:14;12.23;;;6.38;;
58372;SDS011;44177;43.356;27.672;2023-04-24T03:05:40;9.25;;;6.53;;
58372;SDS011;44177;43.356;27.672;2023-04-24T03:08:05;11.55;;;6.63;;
58372;SDS011;44177;43.356;27.672;2023-04-24T03:10:31;7.50;;;6.20;;
58372;SDS011;44177;43.356;27.672;2023-04-24T03:12:57;12.38;;;6.38;;
58372;SDS011;44177;43.356;27.672;2023-04-24T03:15:22;10.52;;;6.15;;
58372;SDS011;44177;43.356;27.672;2023-04-24T03:17:48;13.65;;;6.32;;
58372;SDS011;44177;43.356;27.672;2023-04-24T03:20:13;10.32;;;6.80;;
58372;SDS011;44177;43.356;27.672;2023-04-24T03:22:39;12.45;;;7.22;;
58372;SDS011;44177;43.356;27.672;2023-04-24T03:25:05;13.35;;;7.40;;
58372;SDS011;44177;43.356;27.672;2023-04-24T03:27:31;13.52;;;7.00;;
58372;SDS011;44177;43.356;27.672;2023-04-24T03:29:56;8.82;;;6.43;;
58372;SDS011;44177;43.356;27.672;2023-04-24T03:32:22;15.40;;;6.85;;
58372;SDS011;44177;43.356;27.672;2023-04-24T03:34:48;11.75;;;7.28;;
58372;SDS011;44177;43.356;27.672;2023-04-24T03:37:15;14.75;;;7.45;;
58372;SDS011;44177;43.356;27.672;2023-04-24T03:39:41;13.02;;;6.57;;
58372;SDS011;44177;43.356;27.672;2023-04-24T03:42:06;10.07;;;6.50;;
58372;SDS011;44177;43.356;27.672;2023-04-24T03:44:33;9.23;;;5.85;;
58372;SDS011;44177;43.356;27.672;2023-04-24T03:46:59;11.00;;;6.90;;
58372;SDS011;44177;43.356;27.672;2023-04-24T03:49:24;12.32;;;6.35;;
58372;SDS011;44177;43.356;27.672;2023-04-24T03:51:50;12.95;;;6.68;;
58372;SDS011;44177;43.356;27.672;2023-04-24T03:54:17;14.93;;;6.93;;
58372;SDS011;44177;43.356;27.672;2023-04-24T03:56:43;10.20;;;6.32;;
58372;SDS011;44177;43.356;27.672;2023-04-24T03:59:08;10.13;;;5.75;;
58372;SDS011;44177;43.356;27.672;2023-04-24T04:01:33;14.02;;;5.82;;
58372;SDS011;44177;43.356;27.672;2023-04-24T04:04:02;9.13;;;5.57;;
58372;SDS011;44177;43.356;27.672;2023-04-24T04:06:28;9.25;;;5.28;;
58372;SDS011;44177;43.356;27.672;2023-04-24T04:08:55;8.63;;;5.35;;
58372;SDS011;44177;43.356;27.672;2023-04-24T04:11:21;9.90;;;5.65;;
58372;SDS011;44177;43.356;27.672;2023-04-24T04:13:47;7.57;;;5.78;;
58372;SDS011;44177;43.356;27.672;2023-04-24T04:16:13;10.70;;;5.88;;
58372;SDS011;44177;43.356;27.672;2023-04-24T04:18:39;7.55;;;5.28;;
58372;SDS011;44177;43.356;27.672;2023-04-24T04:21:04;14.10;;;6.22;;
58372;SDS011;44177;43.356;27.672;2023-04-24T04:23:30;7.00;;;4.82;;
58372;SDS011;44177;43.356;27.672;2023-04-24T04:25:57;10.45;;;5.40;;
58372;SDS011;44177;43.356;27.672;2023-04-24T04:28:22;8.45;;;4.50;;
58372;SDS011;44177;43.356;27.672;2023-04-24T04:30:49;7.07;;;4.28;;
58372;SDS011;44177;43.356;27.672;2023-04-24T04:33:18;10.77;;;4.60;;
58372;SDS011;44177;43.356;27.672;2023-04-24T04:35:45;12.48;;;5.10;;
58372;SDS011;44177;43.356;27.672;2023-04-24T04:38:13;7.63;;;4.60;;
58372;SDS011;44177;43.356;27.672;2023-04-24T04:40:40;11.30;;;5.03;;
58372;SDS011;44177;43.356;27.672;2023-04-24T04:43:05;12.35;;;5.22;;
58372;SDS011;44177;43.356;27.672;2023-04-24T04:45:31;8.73;;;4.47;;
58372;SDS011;44177;43.356;27.672;2023-04-24T04:47:57;9.15;;;4.82;;
58372;SDS011;44177;43.356;27.672;2023-04-24T04:50:26;11.93;;;4.90;;
58372;SDS011;44177;43.356;27.672;2023-04-24T04:52:52;7.65;;;4.30;;
58372;SDS011;44177;43.356;27.672;2023-04-24T04:55:17;11.48;;;4.50;;
58372;SDS011;44177;43.356;27.672;2023-04-24T04:57:45;12.90;;;4.65;;
58372;SDS011;44177;43.356;27.672;2023-04-24T05:00:11;9.43;;;4.80;;
58372;SDS011;44177;43.356;27.672;2023-04-24T05:02:37;14.45;;;5.20;;
58372;SDS011;44177;43.356;27.672;2023-04-24T05:05:03;7.50;;;4.50;;
58372;SDS011;44177;43.356;27.672;2023-04-24T05:07:29;11.52;;;4.53;;
58372;SDS011;44177;43.356;27.672;2023-04-24T05:09:55;8.13;;;4.38;;
58372;SDS011;44177;43.356;27.672;2023-04-24T05:12:20;6.30;;;4.20;;
58372;SDS011;44177;43.356;27.672;2023-04-24T05:14:45;13.32;;;4.47;;
58372;SDS011;44177;43.356;27.672;2023-04-24T05:17:11;10.10;;;5.00;;
58372;SDS011;44177;43.356;27.672;2023-04-24T05:19:36;7.45;;;4.40;;
58372;SDS011;44177;43.356;27.672;2023-04-24T05:22:03;7.95;;;4.68;;
58372;SDS011;44177;43.356;27.672;2023-04-24T05:24:31;10.50;;;3.67;;
58372;SDS011;44177;43.356;27.672;2023-04-24T05:27:00;10.15;;;4.25;;
58372;SDS011;44177;43.356;27.672;2023-04-24T05:29:27;9.77;;;3.60;;
58372;SDS011;44177;43.356;27.672;2023-04-24T05:31:52;8.20;;;3.75;;
58372;SDS011;44177;43.356;27.672;2023-04-24T05:34:18;10.15;;;4.38;;
58372;SDS011;44177;43.356;27.672;2023-04-24T05:36:43;8.77;;;3.83;;
58372;SDS011;44177;43.356;27.672;2023-04-24T05:39:09;12.75;;;3.70;;
58372;SDS011;44177;43.356;27.672;2023-04-24T05:41:35;8.43;;;4.03;;
58372;SDS011;44177;43.356;27.672;2023-04-24T05:44:00;12.90;;;3.83;;
58372;SDS011;44177;43.356;27.672;2023-04-24T05:46:26;8.32;;;3.22;;
58372;SDS011;44177;43.356;27.672;2023-04-24T05:48:51;6.90;;;3.92;;
58372;SDS011;44177;43.356;27.672;2023-04-24T05:51:16;9.77;;;4.20;;
58372;SDS011;44177;43.356;27.672;2023-04-24T05:53:42;7.15;;;4.07;;
58372;SDS011;44177;43.356;27.672;2023-04-24T05:56:07;5.78;;;3.35;;
58372;SDS011;44177;43.356;27.672;2023-04-24T05:58:33;6.07;;;3.42;;
58372;SDS011;44177;43.356;27.672;2023-04-24T06:00:59;7.72;;;3.47;;
58372;SDS011;44177;43.356;27.672;2023-04-24T06:03:26;6.18;;;3.53;;
58372;SDS011;44177;43.356;27.672;2023-04-24T06:05:52;6.05;;;2.88;;
58372;SDS011;44177;43.356;27.672;2023-04-24T06:08:18;5.80;;;3.38;;
58372;SDS011;44177;43.356;27.672;2023-04-24T06:10:43;7.57;;;3.90;;
58372;SDS011;44177;43.356;27.672;2023-04-24T06:13:08;5.97;;;3.97;;
58372;SDS011;44177;43.356;27.672;2023-04-24T06:15:34;9.07;;;3.60;;
58372;SDS011;44177;43.356;27.672;2023-04-24T06:18:00;6.65;;;3.92;;
58372;SDS011;44177;43.356;27.672;2023-04-24T06:20:26;5.80;;;3.67;;
58372;SDS011;44177;43.356;27.672;2023-04-24T06:22:51;5.60;;;3.60;;
58372;SDS011;44177;43.356;27.672;2023-04-24T06:25:17;7.85;;;3.92;;
58372;SDS011;44177;43.356;27.672;2023-04-24T06:27:44;4.82;;;3.03;;
58372;SDS011;44177;43.356;27.672;2023-04-24T06:30:09;7.07;;;3.60;;
58372;SDS011;44177;43.356;27.672;2023-04-24T06:32:35;7.05;;;2.95;;
58372;SDS011;44177;43.356;27.672;2023-04-24T06:35:00;8.02;;;3.25;;
58372;SDS011;44177;43.356;27.672;2023-04-24T06:37:26;9.60;;;3.47;;
58372;SDS011;44177;43.356;27.672;2023-04-24T06:39:51;9.07;;;3.50;;
58372;SDS011;44177;43.356;27.672;2023-04-24T06:42:17;5.68;;;3.10;;
58372;SDS011;44177;43.356;27.672;2023-04-24T06:44:42;4.35;;;3.03;;
58372;SDS011;44177;43.356;27.672;2023-04-24T06:47:08;4.40;;;3.33;;
58372;SDS011;44177;43.356;27.672;2023-04-24T06:49:37;8.90;;;3.88;;
58372;SDS011;44177;43.356;27.672;2023-04-24T06:52:03;7.15;;;3.53;;
58372;SDS011;44177;43.356;27.672;2023-04-24T06:54:29;7.80;;;3.42;;
58372;SDS011;44177;43.356;27.672;2023-04-24T06:56:56;4.93;;;3.22;;
58372;SDS011;44177;43.356;27.672;2023-04-24T06:59:22;6.00;;;3.78;;
58372;SDS011;44177;43.356;27.672;2023-04-24T07:01:49;5.50;;;3.25;;
58372;SDS011;44177;43.356;27.672;2023-04-24T07:04:14;9.93;;;4.20;;
58372;SDS011;44177;43.356;27.672;2023-04-24T07:06:40;7.50;;;3.17;;
58372;SDS011;44177;43.356;27.672;2023-04-24T07:09:05;9.32;;;3.70;;
58372;SDS011;44177;43.356;27.672;2023-04-24T07:11:31;6.45;;;3.78;;
58372;SDS011;44177;43.356;27.672;2023-04-24T07:13:57;5.18;;;3.50;;
58372;SDS011;44177;43.356;27.672;2023-04-24T07:16:23;8.85;;;4.50;;
58372;SDS011;44177;43.356;27.672;2023-04-24T07:18:49;9.52;;;3.95;;
58372;SDS011;44177;43.356;27.672;2023-04-24T07:21:14;7.10;;;3.80;;
58372;SDS011;44177;43.356;27.672;2023-04-24T07:23:39;10.57;;;4.75;;
58372;SDS011;44177;43.356;27.672;2023-04-24T07:26:06;7.45;;;4.18;;
58372;SDS011;44177;43.356;27.672;2023-04-24T07:28:31;9.10;;;4.30;;
58372;SDS011;44177;43.356;27.672;2023-04-24T07:30:57;5.35;;;3.60;;
58372;SDS011;44177;43.356;27.672;2023-04-24T07:33:24;9.73;;;3.78;;
58372;SDS011;44177;43.356;27.672;2023-04-24T07:35:50;6.82;;;4.10;;
58372;SDS011;44177;43.356;27.672;2023-04-24T07:38:16;8.23;;;3.72;;
58372;SDS011;44177;43.356;27.672;2023-04-24T07:40:42;9.27;;;3.90;;
58372;SDS011;44177;43.356;27.672;2023-04-24T07:43:07;4.90;;;3.50;;
58372;SDS011;44177;43.356;27.672;2023-04-24T07:45:33;6.22;;;3.33;;
58372;SDS011;44177;43.356;27.672;2023-04-24T07:48:02;10.73;;;4.07;;
58372;SDS011;44177;43.356;27.672;2023-04-24T07:50:27;9.25;;;3.33;;
58372;SDS011;44177;43.356;27.672;2023-04-24T07:52:53;5.90;;;3.42;;
58372;SDS011;44177;43.356;27.672;2023-04-24T07:55:18;6.45;;;3.60;;
58372;SDS011;44177;43.356;27.672;2023-04-24T07:57:43;6.55;;;3.70;;
58372;SDS011;44177;43.356;27.672;2023-04-24T08:00:09;9.00;;;3.72;;
58372;SDS011;44177;43.356;27.672;2023-04-24T08:02:35;6.70;;;3.40;;
58372;SDS011;44177;43.356;27.672;2023-04-24T08:05:01;5.22;;;3.35;;
58372;SDS011;44177;43.356;27.672;2023-04-24T08:07:28;7.95;;;3.30;;
58372;SDS011;44177;43.356;27.672;2023-04-24T08:09:54;7.03;;;3.80;;
58372;SDS011;44177;43.356;27.672;2023-04-24T08:12:19;6.32;;;3.50;;
58372;SDS011;44177;43.356;27.672;2023-04-24T08:14:45;9.18;;;3.90;;
58372;SDS011;44177;43.356;27.672;2023-04-24T08:17:10;8.70;;;4.25;;
58372;SDS011;44177;43.356;27.672;2023-04-24T08:19:36;8.25;;;3.53;;
58372;SDS011;44177;43.356;27.672;2023-04-24T08:22:01;6.97;;;3.10;;
58372;SDS011;44177;43.356;27.672;2023-04-24T08:24:29;10.95;;;3.60;;
58372;SDS011;44177;43.356;27.672;2023-04-24T08:26:54;6.57;;;3.67;;
58372;SDS011;44177;43.356;27.672;2023-04-24T08:29:22;6.30;;;3.47;;
58372;SDS011;44177;43.356;27.672;2023-04-24T08:31:48;6.28;;;3.60;;
58372;SDS011;44177;43.356;27.672;2023-04-24T08:34:13;13.95;;;3.88;;
58372;SDS011;44177;43.356;27.672;2023-04-24T08:36:39;8.15;;;3.40;;
58372;SDS011;44177;43.356;27.672;2023-04-24T08:39:05;7.43;;;3.30;;
58372;SDS011;44177;43.356;27.672;2023-04-24T08:41:31;10.77;;;3.58;;
58372;SDS011;44177;43.356;27.672;2023-04-24T08:43:59;8.23;;;3.50;;
58372;SDS011;44177;43.356;27.672;2023-04-24T08:46:27;8.15;;;3.25;;
58372;SDS011;44177;43.356;27.672;2023-04-24T08:48:53;9.32;;;3.70;;
58372;SDS011;44177;43.356;27.672;2023-04-24T08:51:18;8.65;;;3.53;;
58372;SDS011;44177;43.356;27.672;2023-04-24T08:53:45;7.82;;;3.65;;
58372;SDS011;44177;43.356;27.672;2023-04-24T08:56:12;7.15;;;3.15;;
58372;SDS011;44177;43.356;27.672;2023-04-24T08:58:38;8.25;;;3.33;;
58372;SDS011;44177;43.356;27.672;2023-04-24T09:01:04;6.72;;;3.67;;
58372;SDS011;44177;43.356;27.672;2023-04-24T09:03:30;7.10;;;3.42;;
58372;SDS011;44177;43.356;27.672;2023-04-24T09:05:56;9.57;;;3.03;;
58372;SDS011;44177;43.356;27.672;2023-04-24T09:08:24;10.40;;;3.60;;
58372;SDS011;44177;43.356;27.672;2023-04-24T09:10:51;9.60;;;3.40;;
58372;SDS011;44177;43.356;27.672;2023-04-24T09:13:16;6.13;;;3.50;;
58372;SDS011;44177;43.356;27.672;2023-04-24T09:15:43;4.43;;;3.35;;
58372;SDS011;44177;43.356;27.672;2023-04-24T09:18:09;6.63;;;3.40;;
58372;SDS011;44177;43.356;27.672;2023-04-24T09:20:35;5.88;;;3.20;;
58372;SDS011;44177;43.356;27.672;2023-04-24T09:23:32;6.78;;;3.28;;
58372;SDS011;44177;43.356;27.672;2023-04-24T09:25:58;9.18;;;3.88;;
58372;SDS011;44177;43.356;27.672;2023-04-24T09:28:26;8.43;;;3.25;;
58372;SDS011;44177;43.356;27.672;2023-04-24T09:33:33;6.60;;;3.13;;
58372;SDS011;44177;43.356;27.672;2023-04-24T09:35:59;8.35;;;3.03;;
58372;SDS011;44177;43.356;27.672;2023-04-24T09:38:37;7.40;;;2.90;;
58372;SDS011;44177;43.356;27.672;2023-04-24T09:41:07;8.05;;;3.00;;
58372;SDS011;44177;43.356;27.672;2023-04-24T09:43:33;9.07;;;3.47;;
58372;SDS011;44177;43.356;27.672;2023-04-24T09:46:03;5.15;;;3.15;;
58372;SDS011;44177;43.356;27.672;2023-04-24T09:48:34;7.18;;;3.20;;
58372;SDS011;44177;43.356;27.672;2023-04-24T09:51:01;5.90;;;3.00;;
58372;SDS011;44177;43.356;27.672;2023-04-24T09:53:28;7.45;;;2.55;;
58372;SDS011;44177;43.356;27.672;2023-04-24T09:55:55;7.10;;;3.30;;
58372;SDS011;44177;43.356;27.672;2023-04-24T09:58:24;10.98;;;2.97;;
58372;SDS011;44177;43.356;27.672;2023-04-24T10:00:53;5.25;;;2.20;;
58372;SDS011;44177;43.356;27.672;2023-04-24T10:03:20;6.30;;;3.13;;
58372;SDS011;44177;43.356;27.672;2023-04-24T10:05:46;8.55;;;3.70;;
58372;SDS011;44177;43.356;27.672;2023-04-24T10:08:12;6.28;;;3.10;;
58372;SDS011;44177;43.356;27.672;2023-04-24T10:10:39;7.22;;;3.47;;
58372;SDS011;44177;43.356;27.672;2023-04-24T10:13:07;6.88;;;2.90;;
58372;SDS011;44177;43.356;27.672;2023-04-24T10:15:34;8.55;;;2.78;;
58372;SDS011;44177;43.356;27.672;2023-04-24T10:18:00;8.57;;;2.97;;
58372;SDS011;44177;43.356;27.672;2023-04-24T10:20:27;5.20;;;2.97;;
58372;SDS011;44177;43.356;27.672;2023-04-24T10:22:56;8.05;;;3.25;;
58372;SDS011;44177;43.356;27.672;2023-04-24T10:25:24;6.07;;;2.83;;
58372;SDS011;44177;43.356;27.672;2023-04-24T10:27:52;4.03;;;2.53;;
58372;SDS011;44177;43.356;27.672;2023-04-24T10:30:19;8.35;;;3.28;;
58372;SDS011;44177;43.356;27.672;2023-04-24T10:32:45;8.65;;;3.10;;
58372;SDS011;44177;43.356;27.672;2023-04-24T10:35:11;8.48;;;2.85;;
58372;SDS011;44177;43.356;27.672;2023-04-24T10:38:12;6.22;;;3.22;;
58372;SDS011;44177;43.356;27.672;2023-04-24T10:40:35;8.05;;;3.05;;
58372;SDS011;44177;43.356;27.672;2023-04-24T10:43:04;5.38;;;2.70;;
58372;SDS011;44177;43.356;27.672;2023-04-24T10:45:33;6.78;;;2.60;;
58372;SDS011;44177;43.356;27.672;2023-04-24T10:48:05;10.15;;;2.90;;
58372;SDS011;44177;43.356;27.672;2023-04-24T10:50:51;7.30;;;2.80;;
58372;SDS011;44177;43.356;27.672;2023-04-24T10:53:18;9.27;;;2.80;;
58372;SDS011;44177;43.356;27.672;2023-04-24T10:55:49;5.95;;;2.95;;
58372;SDS011;44177;43.356;27.672;2023-04-24T10:58:39;5.78;;;2.80;;
58372;SDS011;44177;43.356;27.672;2023-04-24T11:01:09;5.03;;;2.70;;
58372;SDS011;44177;43.356;27.672;2023-04-24T11:03:50;5.20;;;2.47;;
58372;SDS011;44177;43.356;27.672;2023-04-24T11:06:20;4.30;;;2.20;;
58372;SDS011;44177;43.356;27.672;2023-04-24T11:11:32;9.18;;;2.70;;
58372;SDS011;44177;43.356;27.672;2023-04-24T11:19:17;3.95;;;2.35;;
58372;SDS011;44177;43.356;27.672;2023-04-24T11:21:54;3.90;;;2.50;;
58372;SDS011;44177;43.356;27.672;2023-04-24T11:32:15;5.60;;;2.80;;
58372;SDS011;44177;43.356;27.672;2023-04-24T11:34:49;5.93;;;2.80;;
58372;SDS011;44177;43.356;27.672;2023-04-24T11:37:19;4.80;;;2.67;;
58372;SDS011;44177;43.356;27.672;2023-04-24T11:39:45;7.25;;;2.42;;
58372;SDS011;44177;43.356;27.672;2023-04-24T11:42:13;3.15;;;2.10;;
58372;SDS011;44177;43.356;27.672;2023-04-24T11:44:41;4.28;;;2.20;;
58372;SDS011;44177;43.356;27.672;2023-04-24T11:47:07;4.90;;;2.50;;
58372;SDS011;44177;43.356;27.672;2023-04-24T11:49:33;5.22;;;2.50;;
58372;SDS011;44177;43.356;27.672;2023-04-24T11:52:02;4.30;;;2.30;;
58372;SDS011;44177;43.356;27.672;2023-04-24T11:54:27;3.95;;;2.03;;
58372;SDS011;44177;43.356;27.672;2023-04-24T11:56:53;5.85;;;2.92;;
58372;SDS011;44177;43.356;27.672;2023-04-24T11:59:19;4.60;;;2.03;;
58372;SDS011;44177;43.356;27.672;2023-04-24T12:01:48;3.47;;;2.70;;
58372;SDS011;44177;43.356;27.672;2023-04-24T12:04:14;5.25;;;2.50;;
58372;SDS011;44177;43.356;27.672;2023-04-24T12:07:00;7.80;;;2.90;;
58372;SDS011;44177;43.356;27.672;2023-04-24T12:10:03;4.20;;;2.28;;
58372;SDS011;44177;43.356;27.672;2023-04-24T12:12:24;3.70;;;2.28;;
58372;SDS011;44177;43.356;27.672;2023-04-24T12:14:55;5.15;;;2.50;;
58372;SDS011;44177;43.356;27.672;2023-04-24T12:17:29;5.32;;;2.90;;
58372;SDS011;44177;43.356;27.672;2023-04-24T12:22:45;4.47;;;2.65;;
58372;SDS011;44177;43.356;27.672;2023-04-24T12:25:12;7.50;;;2.78;;
58372;SDS011;44177;43.356;27.672;2023-04-24T12:27:38;7.28;;;2.90;;
58372;SDS011;44177;43.356;27.672;2023-04-24T12:30:04;4.30;;;2.45;;
58372;SDS011;44177;43.356;27.672;2023-04-24T12:32:40;5.85;;;2.63;;
58372;SDS011;44177;43.356;27.672;2023-04-24T12:35:20;6.10;;;2.85;;
58372;SDS011;44177;43.356;27.672;2023-04-24T12:37:46;6.93;;;2.78;;
58372;SDS011;44177;43.356;27.672;2023-04-24T12:40:12;7.78;;;2.60;;
58372;SDS011;44177;43.356;27.672;2023-04-24T12:42:45;7.47;;;2.47;;
58372;SDS011;44177;43.356;27.672;2023-04-24T12:45:13;5.60;;;2.80;;
58372;SDS011;44177;43.356;27.672;2023-04-24T12:47:39;3.88;;;2.72;;
58372;SDS011;44177;43.356;27.672;2023-04-24T12:50:06;6.90;;;3.05;;
58372;SDS011;44177;43.356;27.672;2023-04-24T12:52:33;5.57;;;2.42;;
58372;SDS011;44177;43.356;27.672;2023-04-24T12:54:59;9.93;;;2.80;;
58372;SDS011;44177;43.356;27.672;2023-04-24T12:57:25;4.38;;;2.47;;
58372;SDS011;44177;43.356;27.672;2023-04-24T12:59:56;5.43;;;2.70;;
58372;SDS011;44177;43.356;27.672;2023-04-24T13:02:23;8.07;;;2.78;;
58372;SDS011;44177;43.356;27.672;2023-04-24T13:04:49;5.60;;;2.63;;
58372;SDS011;44177;43.356;27.672;2023-04-24T13:07:16;6.50;;;2.20;;
58372;SDS011;44177;43.356;27.672;2023-04-24T13:09:43;7.88;;;2.67;;
58372;SDS011;44177;43.356;27.672;2023-04-24T13:12:09;6.03;;;2.35;;
58372;SDS011;44177;43.356;27.672;2023-04-24T13:14:35;4.00;;;2.33;;
58372;SDS011;44177;43.356;27.672;2023-04-24T13:17:02;4.60;;;2.33;;
58372;SDS011;44177;43.356;27.672;2023-04-24T13:19:28;4.65;;;2.60;;
58372;SDS011;44177;43.356;27.672;2023-04-24T13:21:54;4.13;;;2.50;;
58372;SDS011;44177;43.356;27.672;2023-04-24T13:24:21;5.10;;;2.28;;
58372;SDS011;44177;43.356;27.672;2023-04-24T13:26:51;6.43;;;2.97;;
58372;SDS011;44177;43.356;27.672;2023-04-24T13:29:21;6.78;;;2.53;;
58372;SDS011;44177;43.356;27.672;2023-04-24T13:31:47;3.55;;;2.10;;
58372;SDS011;44177;43.356;27.672;2023-04-24T13:34:15;6.28;;;2.53;;
58372;SDS011;44177;43.356;27.672;2023-04-24T13:36:40;4.60;;;2.65;;
58372;SDS011;44177;43.356;27.672;2023-04-24T13:39:06;7.28;;;2.80;;
58372;SDS011;44177;43.356;27.672;2023-04-24T13:41:32;5.20;;;2.35;;
58372;SDS011;44177;43.356;27.672;2023-04-24T13:43:58;5.80;;;2.85;;
58372;SDS011;44177;43.356;27.672;2023-04-24T13:46:24;5.80;;;3.05;;
58372;SDS011;44177;43.356;27.672;2023-04-24T13:48:49;4.53;;;2.58;;
58372;SDS011;44177;43.356;27.672;2023-04-24T13:51:15;5.45;;;2.80;;
58372;SDS011;44177;43.356;27.672;2023-04-24T13:53:41;7.07;;;2.72;;
58372;SDS011;44177;43.356;27.672;2023-04-24T13:56:06;6.55;;;2.47;;
58372;SDS011;44177;43.356;27.672;2023-04-24T13:58:32;6.68;;;2.90;;
58372;SDS011;44177;43.356;27.672;2023-04-24T14:00:58;9.48;;;3.00;;
58372;SDS011;44177;43.356;27.672;2023-04-24T14:03:23;9.25;;;2.63;;
58372;SDS011;44177;43.356;27.672;2023-04-24T14:05:49;12.75;;;2.95;;
58372;SDS011;44177;43.356;27.672;2023-04-24T14:08:15;6.85;;;2.45;;
58372;SDS011;44177;43.356;27.672;2023-04-24T14:10:40;5.93;;;3.08;;
58372;SDS011;44177;43.356;27.672;2023-04-24T14:13:06;7.25;;;2.90;;
58372;SDS011;44177;43.356;27.672;2023-04-24T14:15:31;3.22;;;2.47;;
58372;SDS011;44177;43.356;27.672;2023-04-24T14:17:57;5.05;;;2.50;;
58372;SDS011;44177;43.356;27.672;2023-04-24T14:20:23;6.35;;;2.60;;
58372;SDS011;44177;43.356;27.672;2023-04-24T14:22:48;4.63;;;2.63;;
58372;SDS011;44177;43.356;27.672;2023-04-24T14:25:13;6.45;;;2.75;;
58372;SDS011;44177;43.356;27.672;2023-04-24T14:27:40;7.68;;;2.80;;
58372;SDS011;44177;43.356;27.672;2023-04-24T14:30:06;7.53;;;2.38;;
58372;SDS011;44177;43.356;27.672;2023-04-24T14:32:32;6.80;;;2.45;;
58372;SDS011;44177;43.356;27.672;2023-04-24T14:34:57;5.70;;;2.70;;
58372;SDS011;44177;43.356;27.672;2023-04-24T14:37:23;5.55;;;2.90;;
58372;SDS011;44177;43.356;27.672;2023-04-24T14:39:48;4.97;;;2.60;;
58372;SDS011;44177;43.356;27.672;2023-04-24T14:42:14;4.65;;;2.42;;
58372;SDS011;44177;43.356;27.672;2023-04-24T14:44:39;8.55;;;2.42;;
58372;SDS011;44177;43.356;27.672;2023-04-24T14:47:04;7.03;;;2.63;;
58372;SDS011;44177;43.356;27.672;2023-04-24T14:49:30;7.90;;;2.95;;